createdAt,value
2022-09-01T00:00:34.368Z,16.60
2022-09-01T00:03:01.005Z,16.60
2022-09-01T00:05:27.681Z,16.50
2022-09-01T00:07:54.250Z,16.40
2022-09-01T00:10:20.837Z,16.40
2022-09-01T00:12:47.513Z,16.30
2022-09-01T00:15:14.139Z,16.30
2022-09-01T00:17:40.810Z,16.30
2022-09-01T00:20:07.378Z,16.20
2022-09-01T00:22:34.002Z,16.10
2022-09-01T00:25:01.939Z,16.10
2022-09-01T00:27:30.891Z,16.10
2022-09-01T00:29:57.821Z,16.00
2022-09-01T00:32:25.338Z,16.00
2022-09-01T00:34:51.879Z,16.00
2022-09-01T00:37:18.447Z,15.90
2022-09-01T00:39:45.015Z,15.90
2022-09-01T00:42:11.638Z,15.90
2022-09-01T00:44:38.429Z,15.90
2022-09-01T00:47:06.971Z,15.90
2022-09-01T00:49:34.943Z,15.90
2022-09-01T00:52:02.087Z,15.80
2022-09-01T00:54:29.282Z,15.80
2022-09-01T00:56:57.692Z,15.70
2022-09-01T00:59:24.720Z,15.60
2022-09-01T01:01:51.411Z,15.50
2022-09-01T01:04:18.097Z,15.40
2022-09-01T01:06:49.644Z,15.40
2022-09-01T01:09:20.326Z,15.30
2022-09-01T01:11:47.563Z,15.30
2022-09-01T01:14:15.449Z,15.30
2022-09-01T01:16:44.695Z,15.20
2022-09-01T01:19:33.832Z,15.10
2022-09-01T01:22:23.539Z,15.10
2022-09-01T01:24:50.195Z,15.00
2022-09-01T01:27:18.892Z,15.00
2022-09-01T01:29:47.631Z,15.00
2022-09-01T01:32:14.194Z,14.90
2022-09-01T01:34:43.470Z,14.90
2022-09-01T01:37:10.908Z,14.90
2022-09-01T01:39:42.724Z,14.90
2022-09-01T01:42:09.518Z,14.90
2022-09-01T01:44:37.212Z,14.90
2022-09-01T01:47:08.418Z,14.90
2022-09-01T01:49:35.352Z,14.90
2022-09-01T01:52:01.917Z,14.80
2022-09-01T01:54:32.104Z,14.80
2022-09-01T01:56:58.794Z,14.80
2022-09-01T01:59:26.487Z,14.80
2022-09-01T02:01:53.258Z,14.70
2022-09-01T02:04:19.925Z,14.70
2022-09-01T02:06:47.780Z,14.60
2022-09-01T02:09:14.356Z,14.60
2022-09-01T02:11:40.901Z,14.60
2022-09-01T02:14:07.773Z,14.50
2022-09-01T02:16:34.659Z,14.50
2022-09-01T02:19:01.285Z,14.40
2022-09-01T02:21:27.911Z,14.40
2022-09-01T02:24:00.996Z,14.40
2022-09-01T02:26:31.149Z,14.40
2022-09-01T02:28:58.110Z,14.40
2022-09-01T02:31:24.781Z,14.30
2022-09-01T02:33:52.137Z,14.30
2022-09-01T02:36:19.474Z,14.30
2022-09-01T02:38:46.904Z,14.30
2022-09-01T02:41:21.744Z,14.20
2022-09-01T02:43:48.389Z,14.30
2022-09-01T02:46:15.405Z,14.30
2022-09-01T02:48:42.685Z,14.20
2022-09-01T02:51:09.267Z,14.30
2022-09-01T02:53:39.337Z,14.30
2022-09-01T02:56:09.390Z,14.30
2022-09-01T02:58:40.866Z,14.20
2022-09-01T03:01:07.462Z,14.20
2022-09-01T03:03:35.388Z,14.20
2022-09-01T03:06:02.063Z,14.20
2022-09-01T03:08:28.672Z,14.20
2022-09-01T03:10:56.000Z,14.20
2022-09-01T03:13:22.594Z,14.20
2022-09-01T03:15:50.178Z,14.10
2022-09-01T03:18:18.512Z,14.10
2022-09-01T03:20:46.392Z,14.10
2022-09-01T03:23:15.058Z,14.10
2022-09-01T03:25:45.896Z,14.10
2022-09-01T03:28:13.074Z,14.00
2022-09-01T03:30:40.261Z,14.00
2022-09-01T03:33:06.829Z,14.00
2022-09-01T03:35:33.393Z,14.00
2022-09-01T03:37:59.958Z,14.00
2022-09-01T03:40:27.739Z,14.00
2022-09-01T03:42:55.545Z,13.90
2022-09-01T03:45:22.140Z,13.90
2022-09-01T03:47:48.807Z,13.90
2022-09-01T03:50:21.509Z,13.90
2022-09-01T03:52:49.186Z,13.90
2022-09-01T03:55:18.326Z,13.90
2022-09-01T03:57:47.389Z,13.90
2022-09-01T04:00:20.824Z,13.90
2022-09-01T04:02:56.102Z,13.80
2022-09-01T04:05:24.955Z,13.80
2022-09-01T04:07:51.561Z,13.70
2022-09-01T04:10:18.091Z,13.70
2022-09-01T04:12:44.645Z,13.70
2022-09-01T04:15:11.193Z,13.60
2022-09-01T04:17:56.552Z,13.60
2022-09-01T04:20:23.489Z,13.60
2022-09-01T04:22:50.629Z,13.60
2022-09-01T04:25:17.175Z,13.50
2022-09-01T04:27:45.065Z,13.50
2022-09-01T04:30:11.662Z,13.50
2022-09-01T04:32:38.256Z,13.40
2022-09-01T04:35:04.810Z,13.40
2022-09-01T04:37:31.350Z,13.40
2022-09-01T04:39:57.970Z,13.40
2022-09-01T04:42:25.589Z,13.30
2022-09-01T04:44:53.539Z,13.20
2022-09-01T04:47:30.196Z,13.20
2022-09-01T04:50:04.259Z,13.20
2022-09-01T04:52:31.907Z,13.10
2022-09-01T04:54:58.686Z,13.10
2022-09-01T04:57:27.520Z,13.00
2022-09-01T04:59:56.673Z,13.00
2022-09-01T05:02:27.051Z,13.00
2022-09-01T05:04:55.040Z,12.90
2022-09-01T05:07:21.603Z,12.90
2022-09-01T05:09:48.158Z,12.90
2022-09-01T05:12:15.943Z,12.90
2022-09-01T05:14:43.468Z,12.90
2022-09-01T05:17:12.961Z,13.00
2022-09-01T05:19:39.572Z,13.00
2022-09-01T05:22:07.490Z,13.00
2022-09-01T05:24:38.545Z,13.00
2022-09-01T05:27:07.904Z,13.00
2022-09-01T05:29:37.945Z,13.00
2022-09-01T05:32:08.813Z,13.10
2022-09-01T05:34:37.441Z,13.10
2022-09-01T05:37:05.442Z,13.10
2022-09-01T05:39:32.021Z,13.20
2022-09-01T05:41:58.553Z,13.20
2022-09-01T05:44:25.206Z,13.20
2022-09-01T05:46:53.314Z,13.20
2022-09-01T05:49:19.911Z,13.20
2022-09-01T05:51:50.818Z,13.30
2022-09-01T05:54:18.695Z,13.30
2022-09-01T05:56:45.829Z,13.40
2022-09-01T05:59:28.351Z,13.50
2022-09-01T06:01:55.246Z,13.60
2022-09-01T06:04:22.694Z,13.70
2022-09-01T06:07:05.728Z,13.70
2022-09-01T06:09:33.969Z,13.70
2022-09-01T06:12:02.719Z,13.80
2022-09-01T06:14:29.269Z,13.70
2022-09-01T06:16:56.323Z,13.70
2022-09-01T06:19:22.889Z,13.70
2022-09-01T06:21:49.556Z,13.80
2022-09-01T06:24:16.860Z,13.90
2022-09-01T06:26:43.912Z,14.00
2022-09-01T06:29:15.144Z,14.10
2022-09-01T06:31:42.420Z,14.10
2022-09-01T06:34:09.023Z,14.30
2022-09-01T06:36:36.521Z,14.40
2022-09-01T06:39:03.101Z,14.60
2022-09-01T06:41:31.448Z,14.70
2022-09-01T06:43:58.068Z,14.90
2022-09-01T06:46:29.483Z,15.00
2022-09-01T06:48:58.815Z,15.10
2022-09-01T06:51:26.831Z,15.30
2022-09-01T06:53:59.236Z,15.40
2022-09-01T06:56:32.068Z,15.50
2022-09-01T06:58:59.089Z,15.60
2022-09-01T07:01:27.622Z,15.70
2022-09-01T07:03:54.479Z,15.90
2022-09-01T07:09:38.821Z,16.10
2022-09-01T07:12:25.329Z,16.30
2022-09-01T07:17:42.271Z,16.50
2022-09-01T07:20:25.735Z,16.60
2022-09-01T07:23:07.860Z,16.80
2022-09-01T07:25:48.269Z,16.90
2022-09-01T07:28:21.789Z,17.00
2022-09-01T07:30:52.946Z,17.10
2022-09-01T07:44:28.778Z,17.60
2022-09-01T07:52:29.199Z,17.90
2022-09-01T07:54:56.008Z,18.00
2022-09-01T07:57:22.904Z,18.20
2022-09-01T07:59:51.673Z,18.30
2022-09-01T08:02:18.396Z,18.40
2022-09-01T08:04:45.991Z,18.50
2022-09-01T08:07:15.986Z,18.50
2022-09-01T08:09:44.094Z,18.60
2022-09-01T08:12:11.078Z,18.70
2022-09-01T08:14:37.605Z,18.70
2022-09-01T08:19:53.405Z,19.00
2022-09-01T08:22:23.920Z,19.10
2022-09-01T08:24:50.983Z,19.20
2022-09-01T08:27:17.549Z,19.40
2022-09-01T08:29:44.185Z,19.50
2022-09-01T08:32:13.983Z,19.60
2022-09-01T08:34:40.584Z,19.60
2022-09-01T08:37:07.142Z,19.70
2022-09-01T08:39:33.979Z,19.80
2022-09-01T08:42:00.546Z,19.90
2022-09-01T08:44:28.296Z,20.00
2022-09-01T08:46:56.230Z,20.00
2022-09-01T08:49:26.207Z,20.10
2022-09-01T08:51:53.232Z,20.10
2022-09-01T08:54:25.241Z,20.00
2022-09-01T08:56:56.640Z,20.00
2022-09-01T08:59:23.215Z,19.90
2022-09-01T09:01:49.836Z,19.90
2022-09-01T09:04:16.857Z,19.80
2022-09-01T09:06:43.552Z,19.90
2022-09-01T09:09:10.351Z,20.00
2022-09-01T09:11:36.888Z,20.00
2022-09-01T09:14:03.422Z,19.80
2022-09-01T09:16:30.019Z,19.80
2022-09-01T09:18:56.871Z,19.90
2022-09-01T09:21:23.965Z,20.00
2022-09-01T09:23:50.501Z,20.00
2022-09-01T09:26:22.260Z,20.10
2022-09-01T09:28:49.947Z,20.20
2022-09-01T09:31:18.601Z,20.40
2022-09-01T09:33:51.798Z,20.50
2022-09-01T09:36:19.345Z,20.70
2022-09-01T09:38:45.966Z,20.90
2022-09-01T09:41:17.867Z,20.90
2022-09-01T09:43:47.527Z,20.90
2022-09-01T09:46:29.537Z,21.00
2022-09-01T09:48:56.131Z,21.20
2022-09-01T09:51:22.716Z,21.40
2022-09-01T09:53:49.392Z,21.40
2022-09-01T09:56:16.245Z,21.40
2022-09-01T09:58:42.865Z,21.50
2022-09-01T10:01:09.632Z,21.60
2022-09-01T10:03:36.546Z,21.70
2022-09-01T10:06:04.102Z,21.60
2022-09-01T10:08:34.973Z,21.40
2022-09-01T10:11:02.065Z,21.20
2022-09-01T10:13:33.070Z,21.10
2022-09-01T10:15:59.803Z,21.00
2022-09-01T10:18:29.786Z,21.00
2022-09-01T10:20:56.348Z,21.20
2022-09-01T10:23:27.234Z,21.40
2022-09-01T10:25:54.046Z,21.50
2022-09-01T10:28:24.241Z,21.50
2022-09-01T10:30:51.044Z,21.50
2022-09-01T10:33:20.772Z,21.50
2022-09-01T10:35:47.625Z,21.60
2022-09-01T10:38:14.182Z,21.50
2022-09-01T10:40:43.896Z,21.40
2022-09-01T10:43:12.463Z,21.30
2022-09-01T10:45:40.314Z,21.30
2022-09-01T10:48:06.935Z,21.20
2022-09-01T10:50:36.528Z,21.30
2022-09-01T10:53:04.905Z,21.50
2022-09-01T10:55:32.611Z,21.70
2022-09-01T10:58:08.494Z,22.10
2022-09-01T11:01:10.587Z,22.40
2022-09-01T11:03:41.033Z,22.70
2022-09-01T11:06:12.533Z,22.90
2022-09-01T11:08:40.026Z,22.90
2022-09-01T11:11:06.572Z,23.10
2022-09-01T11:13:35.922Z,23.30
2022-09-01T11:16:02.472Z,23.30
2022-09-01T11:18:29.504Z,23.50
2022-09-01T11:20:57.899Z,23.70
2022-09-01T11:23:24.946Z,23.90
2022-09-01T11:26:20.226Z,24.10
2022-09-01T11:28:38.503Z,24.20
2022-09-01T11:31:05.146Z,24.10
2022-09-01T11:33:31.759Z,24.00
2022-09-01T11:35:58.357Z,24.10
2022-09-01T11:38:25.182Z,24.10
2022-09-01T11:40:52.059Z,24.30
2022-09-01T11:43:19.215Z,24.10
2022-09-01T11:45:46.022Z,24.10
2022-09-01T11:48:12.657Z,24.10
2022-09-01T11:50:39.252Z,24.00
2022-09-01T11:53:05.852Z,23.90
2022-09-01T11:55:32.489Z,23.80
2022-09-01T11:57:59.057Z,23.70
2022-09-01T12:00:25.629Z,23.60
2022-09-01T12:02:52.323Z,23.60
2022-09-01T12:05:18.965Z,23.80
2022-09-01T12:07:45.567Z,23.90
2022-09-01T12:10:12.088Z,24.10
2022-09-01T12:12:38.707Z,24.20
2022-09-01T12:15:06.616Z,24.10
2022-09-01T12:17:33.533Z,24.10
2022-09-01T12:20:00.108Z,24.30
2022-09-01T12:22:26.673Z,24.30
2022-09-01T12:24:53.368Z,24.30
2022-09-01T12:27:19.943Z,24.20
2022-09-01T12:29:46.633Z,24.10
2022-09-01T12:32:13.314Z,24.20
2022-09-01T12:34:39.870Z,24.30
2022-09-01T12:37:06.592Z,24.50
2022-09-01T12:39:33.859Z,24.60
2022-09-01T12:42:00.924Z,24.70
2022-09-01T12:44:29.967Z,24.60
2022-09-01T12:46:56.855Z,24.50
2022-09-01T12:49:28.436Z,24.50
2022-09-01T12:51:55.422Z,24.40
2022-09-01T12:54:21.967Z,24.50
2022-09-01T12:56:48.507Z,24.50
2022-09-01T12:59:17.158Z,24.70
2022-09-01T13:01:44.937Z,24.70
2022-09-01T13:04:11.614Z,24.90
2022-09-01T13:06:38.315Z,24.90
2022-09-01T13:09:04.986Z,25.10
2022-09-01T13:12:06.045Z,25.10
2022-09-01T13:14:18.976Z,24.90
2022-09-01T13:16:45.600Z,24.80
2022-09-01T13:19:12.304Z,24.70
2022-09-01T13:24:10.431Z,25.10
2022-09-01T13:26:37.128Z,25.20
2022-09-01T13:29:03.810Z,25.40
2022-09-01T13:31:31.765Z,25.50
2022-09-01T13:34:22.479Z,25.40
2022-09-01T13:36:49.727Z,25.00
2022-09-01T13:39:18.923Z,24.80
2022-09-01T13:41:47.021Z,24.50
2022-09-01T13:44:13.838Z,24.40
2022-09-01T13:50:05.023Z,23.90
2022-09-01T13:52:14.804Z,23.50
2022-09-01T13:54:41.953Z,23.30
2022-09-01T13:57:08.562Z,23.20
2022-09-01T13:59:35.097Z,23.30
2022-09-01T14:02:01.744Z,23.20
2022-09-01T14:04:28.461Z,23.30
2022-09-01T14:06:55.109Z,23.50
2022-09-01T14:09:21.904Z,23.80
2022-09-01T14:11:48.557Z,24.10
2022-09-01T14:14:15.118Z,24.40
2022-09-01T14:16:41.746Z,24.70
2022-09-01T14:19:08.399Z,24.90
2022-09-01T14:21:34.953Z,25.20
2022-09-01T14:24:01.585Z,25.30
2022-09-01T14:26:28.268Z,25.50
2022-09-01T14:28:55.000Z,25.50
2022-09-01T14:31:21.686Z,25.60
2022-09-01T14:33:49.284Z,25.80
2022-09-01T14:36:15.849Z,25.80
2022-09-01T14:38:42.447Z,25.80
2022-09-01T14:41:08.998Z,25.80
2022-09-01T14:43:35.581Z,25.50
2022-09-01T14:46:02.120Z,25.20
2022-09-01T14:48:30.765Z,25.00
2022-09-01T14:50:57.930Z,24.90
2022-09-01T14:53:24.482Z,24.90
2022-09-01T14:55:55.500Z,25.00
2022-09-01T14:58:22.834Z,25.10
2022-09-01T15:00:50.029Z,25.00
2022-09-01T15:03:21.827Z,24.90
2022-09-01T15:05:50.160Z,24.80
2022-09-01T15:08:17.882Z,24.80
2022-09-01T15:10:44.602Z,24.90
2022-09-01T15:13:11.192Z,24.90
2022-09-01T15:15:37.956Z,24.80
2022-09-01T15:18:04.513Z,24.90
2022-09-01T15:20:46.482Z,24.90
2022-09-01T15:23:13.011Z,24.80
2022-09-01T15:25:39.602Z,24.80
2022-09-01T15:28:06.226Z,24.90
2022-09-01T15:30:32.805Z,24.90
2022-09-01T15:32:59.366Z,24.70
2022-09-01T15:35:25.930Z,24.50
2022-09-01T15:37:52.770Z,24.40
2022-09-01T15:40:19.373Z,24.10
2022-09-01T15:42:45.970Z,24.00
2022-09-01T15:45:12.572Z,23.80
2022-09-01T15:47:41.317Z,23.60
2022-09-01T15:50:12.784Z,23.50
2022-09-01T15:52:49.705Z,23.50
2022-09-01T15:55:16.447Z,23.60
2022-09-01T15:57:42.985Z,23.70
2022-09-01T16:00:09.534Z,23.80
2022-09-01T16:02:36.141Z,24.00
2022-09-01T16:05:02.803Z,24.10
2022-09-01T16:07:29.368Z,24.30
2022-09-01T16:09:57.803Z,24.50
2022-09-01T16:12:26.348Z,24.60
2022-09-01T16:14:53.434Z,24.60
2022-09-01T16:17:20.016Z,24.70
2022-09-01T16:19:46.612Z,24.70
2022-09-01T16:22:13.215Z,24.80
2022-09-01T16:24:39.779Z,24.80
2022-09-01T16:27:06.325Z,24.90
2022-09-01T16:29:32.912Z,24.90
2022-09-01T16:31:59.709Z,25.00
2022-09-01T16:34:28.509Z,24.90
2022-09-01T16:36:55.277Z,24.90
2022-09-01T16:39:21.806Z,24.90
2022-09-01T16:41:48.420Z,24.90
2022-09-01T16:44:14.980Z,24.90
2022-09-01T16:46:45.417Z,24.90
2022-09-01T16:49:14.482Z,25.00
2022-09-01T16:51:41.548Z,25.00
2022-09-01T16:54:08.961Z,25.00
2022-09-01T16:56:35.555Z,25.10
2022-09-01T16:59:03.303Z,25.10
2022-09-01T17:01:30.177Z,25.00
2022-09-01T17:03:56.844Z,24.90
2022-09-01T17:06:23.425Z,24.80
2022-09-01T17:08:52.414Z,24.70
2022-09-01T17:11:19.101Z,24.60
2022-09-01T17:13:49.387Z,24.50
2022-09-01T17:16:16.469Z,24.40
2022-09-01T17:18:44.430Z,24.30
2022-09-01T17:21:11.043Z,24.20
2022-09-01T17:23:38.106Z,24.00
2022-09-01T17:26:04.678Z,23.90
2022-09-01T17:28:33.581Z,23.80
2022-09-01T17:31:00.333Z,23.50
2022-09-01T17:33:26.949Z,23.10
2022-09-01T17:35:53.859Z,22.80
2022-09-01T17:38:20.501Z,22.40
2022-09-01T17:40:47.117Z,22.20
2022-09-01T17:43:15.360Z,21.90
2022-09-01T17:45:45.584Z,21.80
2022-09-01T17:48:12.356Z,21.60
2022-09-01T17:50:39.073Z,21.50
2022-09-01T17:53:10.376Z,21.30
2022-09-01T17:55:37.372Z,21.20
2022-09-01T17:58:04.721Z,21.20
2022-09-01T18:00:34.057Z,21.10
2022-09-01T18:03:02.312Z,21.00
2022-09-01T18:05:28.900Z,20.90
2022-09-01T18:07:55.584Z,20.80
2022-09-01T18:10:22.130Z,20.80
2022-09-01T18:12:48.684Z,20.80
2022-09-01T18:15:15.239Z,20.70
2022-09-01T18:17:41.896Z,20.60
2022-09-01T18:20:08.552Z,20.60
2022-09-01T18:22:35.129Z,20.50
2022-09-01T18:25:02.206Z,20.50
2022-09-01T18:27:32.702Z,20.40
2022-09-01T18:30:01.218Z,20.40
2022-09-01T18:32:27.788Z,20.30
2022-09-01T18:34:54.428Z,20.30
2022-09-01T18:37:21.003Z,20.20
2022-09-01T18:39:47.579Z,20.20
2022-09-01T18:42:14.134Z,20.10
2022-09-01T18:44:40.725Z,20.10
2022-09-01T18:47:07.275Z,20.00
2022-09-01T18:49:34.030Z,20.00
2022-09-01T18:52:00.910Z,19.90
2022-09-01T18:54:27.475Z,19.90
2022-09-01T18:56:54.089Z,19.80
2022-09-01T18:59:20.608Z,19.80
2022-09-01T19:01:48.300Z,19.70
2022-09-01T19:04:14.996Z,19.70
2022-09-01T19:06:41.582Z,19.60
2022-09-01T19:09:08.806Z,19.60
2022-09-01T19:11:35.368Z,19.60
2022-09-01T19:14:01.962Z,19.60
2022-09-01T19:16:28.792Z,19.50
2022-09-01T19:18:55.921Z,19.50
2022-09-01T19:21:22.543Z,19.50
2022-09-01T19:23:50.278Z,19.40
2022-09-01T19:26:16.884Z,19.40
2022-09-01T19:28:43.472Z,19.40
2022-09-01T19:31:10.157Z,19.40
2022-09-01T19:33:37.951Z,19.30
2022-09-01T19:36:04.614Z,19.30
2022-09-01T19:38:31.602Z,19.20
2022-09-01T19:40:58.755Z,19.20
2022-09-01T19:43:27.894Z,19.10
2022-09-01T19:45:56.824Z,19.00
2022-09-01T19:48:24.039Z,19.00
2022-09-01T19:50:51.146Z,19.00
2022-09-01T19:53:17.835Z,18.90
2022-09-01T19:55:44.396Z,18.80
2022-09-01T19:58:10.958Z,18.80
2022-09-01T20:00:38.759Z,18.80
2022-09-01T20:03:05.482Z,18.70
2022-09-01T20:05:32.165Z,18.60
2022-09-01T20:07:59.582Z,18.60
2022-09-01T20:10:26.793Z,18.60
2022-09-01T20:12:53.349Z,18.50
2022-09-01T20:15:20.026Z,18.40
2022-09-01T20:17:46.565Z,18.40
2022-09-01T20:20:13.108Z,18.40
2022-09-01T20:22:40.344Z,18.30
2022-09-01T20:25:10.482Z,18.30
2022-09-01T20:27:37.121Z,18.20
2022-09-01T20:30:03.696Z,18.20
2022-09-01T20:32:30.415Z,18.10
2022-09-01T20:34:56.949Z,18.10
2022-09-01T20:37:23.530Z,18.00
2022-09-01T20:40:03.645Z,18.00
2022-09-01T20:42:31.400Z,18.00
2022-09-01T20:44:57.991Z,18.00
2022-09-01T20:47:24.523Z,18.00
2022-09-01T20:49:53.475Z,18.00
2022-09-01T20:52:21.252Z,18.00
2022-09-01T20:54:47.970Z,18.00
2022-09-01T20:57:14.586Z,18.00
2022-09-01T20:59:42.899Z,18.00
2022-09-01T21:02:14.866Z,17.90
2022-09-01T21:04:43.846Z,17.90
2022-09-01T21:07:15.694Z,17.90
2022-09-01T21:09:46.046Z,17.90
2022-09-01T21:12:12.785Z,17.90
2022-09-01T21:14:39.484Z,17.90
2022-09-01T21:17:06.471Z,17.90
2022-09-01T21:19:33.941Z,17.90
2022-09-01T21:22:00.977Z,17.90
2022-09-01T21:24:27.851Z,17.80
2022-09-01T21:26:56.647Z,17.80
2022-09-01T21:29:24.140Z,17.80
2022-09-01T21:31:51.007Z,17.80
2022-09-01T21:34:17.952Z,17.70
2022-09-01T21:36:44.883Z,17.70
2022-09-01T21:39:14.274Z,17.70
2022-09-01T21:41:41.075Z,17.70
2022-09-01T21:44:09.833Z,17.70
2022-09-01T21:46:43.777Z,17.70
2022-09-01T21:49:29.523Z,17.70
2022-09-01T21:52:04.083Z,17.60
2022-09-01T21:54:34.610Z,17.60
2022-09-01T21:57:06.468Z,17.60
2022-09-01T21:59:38.929Z,17.60
2022-09-01T22:05:03.310Z,17.50
2022-09-01T22:07:42.476Z,17.50
2022-09-01T22:10:15.668Z,17.40
2022-09-01T22:12:50.505Z,17.40
2022-09-01T22:18:02.785Z,17.30
2022-09-01T22:20:32.067Z,17.20
2022-09-01T22:23:02.082Z,17.20
2022-09-01T22:25:29.522Z,17.10
2022-09-01T22:27:56.352Z,17.00
2022-09-01T22:30:23.316Z,17.00
2022-09-01T22:32:50.856Z,16.90
2022-09-01T22:35:21.021Z,16.90
2022-09-01T22:37:47.865Z,16.80
2022-09-01T22:40:15.640Z,16.80
2022-09-01T22:42:42.893Z,16.70
2022-09-01T22:45:09.901Z,16.70
2022-09-01T22:47:37.430Z,16.80
2022-09-01T22:50:05.481Z,16.70
2022-09-01T22:52:32.623Z,16.80
2022-09-01T22:54:59.736Z,16.80
2022-09-01T22:57:29.241Z,16.80
2022-09-01T22:59:56.137Z,16.80
2022-09-01T23:02:23.481Z,16.80
2022-09-01T23:04:50.598Z,16.70
2022-09-01T23:07:17.526Z,16.60
2022-09-01T23:09:44.581Z,16.60
2022-09-01T23:12:11.441Z,16.50
2022-09-01T23:14:42.915Z,16.40
2022-09-01T23:17:09.700Z,16.40
2022-09-01T23:19:36.972Z,16.40
2022-09-01T23:22:03.842Z,16.30
2022-09-01T23:24:33.628Z,16.30
2022-09-01T23:27:00.558Z,16.30
2022-09-01T23:29:30.051Z,16.30
2022-09-01T23:31:57.684Z,16.30
2022-09-01T23:34:26.022Z,16.30
2022-09-01T23:36:53.358Z,16.30
2022-09-01T23:39:20.175Z,16.20
2022-09-01T23:41:47.575Z,16.20
2022-09-01T23:44:18.253Z,16.20
2022-09-01T23:46:45.295Z,16.20
2022-09-01T23:49:12.226Z,16.10
2022-09-01T23:51:39.169Z,16.10
2022-09-01T23:54:06.054Z,16.10
2022-09-01T23:56:32.893Z,16.20
2022-09-01T23:58:59.807Z,16.20
